Terminal Aerodrome Forecast
Issued by NWS

Home | Current Version | Previous Version | Text Only | Print | Product List | Glossary On
Versions: 1 2 3 4 5 6 7 8 9 10 11 12 13
000
FTUS43 KOAX 012325
TAFSNY
TAF
KSNY 012325Z 0200/0224 05008KT P6SM SCT120
     FM020300 10008KT P6SM BKN120
     FM021500 05010G20KT P6SM SCT050
     FM021900 05009KT P6SM BKN050=

USA.gov is the U.S. government's official web portal to all federal, state and local government web resources and services.